WXM80 ListenWXM80 Stop

You find our weather info also at:

UK Metoffice

WeatherCloud

Weather Underground

Northeastern Weather Network

AWEKAS

Citizen Weather Observer Program (CWOP)

HAMweather, WeatherForYou, PWS Weather


Weather Underground History page Text

Daily Summary for November 5, 2017 Units:  English    Metric   Both
« Previous Day
Next Day »
Daily Weekly Monthly Yearly Custom
  High: Low: Average:
Temperature: 60.4 °F 51.2 °F 56.6 °F
Dew Point: 59.5 °F 47.5 °F 54.2 °F
Humidity: 97 % 80 % 92 %
Wind Speed: 3.6 mph 0.0 mph 0.7 mph
Wind Gust: 9.2 mph - -
Wind:- - ESE
Pressure: 30.36 in 29.79 in -
Precipitation: 0.03 in    
Historical Graphs
 
 
Tabular Data for November 5, 2017
Time Temperature Dew Point Pressure Wind Wind Speed Wind Gust Humidity Rainfall Rate (Hourly)
00:01 52.5 °F 47.5 °F 30.35 in East 1.5 mph 2.3 mph 83 % 0.00 in
00:06 52.6 °F 47.6 °F 30.34 in East 1.1 mph 3.5 mph 83 % 0.00 in
00:11 52.7 °F 47.7 °F 30.34 in East 1.6 mph 3.5 mph 83 % 0.00 in
00:16 52.9 °F 47.6 °F 30.35 in East 1.3 mph 3.0 mph 82 % 0.00 in
00:21 53.0 °F 47.7 °F 30.34 in East 3.6 mph 4.6 mph 82 % 0.00 in
00:26 53.1 °F 47.7 °F 30.34 in ESE 2.3 mph 5.0 mph 82 % 0.00 in
00:31 53.3 °F 47.9 °F 30.34 in East 1.8 mph 3.0 mph 82 % 0.00 in
00:36 53.3 °F 47.9 °F 30.35 in East 2.3 mph 3.0 mph 82 % 0.00 in
00:41 53.4 °F 47.7 °F 30.35 in East 1.2 mph 2.3 mph 81 % 0.00 in
00:46 53.5 °F 47.8 °F 30.34 in East 2.3 mph 5.8 mph 81 % 0.00 in
00:51 53.6 °F 47.9 °F 30.35 in East 1.9 mph 6.0 mph 81 % 0.00 in
00:56 53.6 °F 47.9 °F 30.35 in SE 2.0 mph 3.5 mph 81 % 0.00 in
01:02 53.7 °F 48.0 °F 30.35 in ESE 0.4 mph 2.3 mph 81 % 0.00 in
01:07 53.7 °F 48.0 °F 30.35 in East 1.0 mph 3.5 mph 81 % 0.00 in
01:12 53.7 °F 48.0 °F 30.36 in East 1.0 mph 3.5 mph 81 % 0.00 in
01:17 53.7 °F 48.0 °F 30.36 in East 0.1 mph 2.3 mph 81 % 0.00 in
01:22 53.7 °F 47.7 °F 30.35 in East 0.1 mph 1.2 mph 80 % 0.00 in
01:27 53.7 °F 47.7 °F 30.35 in East 1.7 mph 3.5 mph 80 % 0.00 in
01:32 53.7 °F 48.0 °F 30.36 in East 1.1 mph 2.3 mph 81 % 0.00 in
01:37 53.7 °F 47.7 °F 30.36 in East 1.4 mph 2.3 mph 80 % 0.00 in
01:42 53.7 °F 47.7 °F 30.36 in ESE 2.4 mph 5.8 mph 80 % 0.00 in
01:47 53.6 °F 47.6 °F 30.36 in SE 0.6 mph 3.5 mph 80 % 0.00 in
01:52 53.6 °F 47.6 °F 30.36 in Calm   1.2 mph 80 % 0.00 in
01:57 53.5 °F 47.5 °F 30.36 in SE 0.2 mph 2.3 mph 80 % 0.00 in
01:02 53.5 °F 47.8 °F 30.35 in Calm     81 % 0.00 in
01:07 53.5 °F 48.5 °F 30.35 in East 0.5 mph 1.2 mph 83 % 0.00 in
01:12 53.3 °F 48.6 °F 30.33 in East 1.9 mph 3.5 mph 84 % 0.00 in
01:15 53.2 °F 48.8 °F 30.33 in ENE 2.5 mph 4.6 mph 85 % 0.00 in
01:20 52.9 °F 48.8 °F 30.33 in East 2.1 mph 3.5 mph 86 % 0.00 in
01:25 52.6 °F 48.8 °F 30.33 in East 2.4 mph 4.6 mph 87 % 0.00 in
01:30 52.4 °F 48.9 °F 30.33 in ESE 2.3 mph 3.5 mph 88 % 0.00 in
01:35 52.2 °F 48.8 °F 30.33 in ESE 1.8 mph 4.6 mph 88 % 0.00 in
01:40 52.1 °F 48.7 °F 30.33 in SE 1.5 mph 5.0 mph 88 % 0.00 in
01:45 52.0 °F 48.6 °F 30.32 in East 1.7 mph 3.5 mph 88 % 0.00 in
01:50 51.9 °F 48.8 °F 30.32 in East 1.2 mph 3.5 mph 89 % 0.00 in
01:55 51.9 °F 48.8 °F 30.31 in East 1.8 mph 3.5 mph 89 % 0.00 in
02:01 51.8 °F 48.7 °F 30.32 in East 1.2 mph 3.5 mph 89 % 0.00 in
02:06 51.8 °F 48.7 °F 30.32 in East 1.0 mph 8.0 mph 89 % 0.00 in
02:11 51.7 °F 48.9 °F 30.31 in East 3.0 mph 6.0 mph 90 % 0.00 in
02:16 51.7 °F 48.9 °F 30.30 in East 2.0 mph 3.0 mph 90 % 0.00 in
02:21 51.7 °F 48.9 °F 30.29 in ESE 3.6 mph 5.8 mph 90 % 0.00 in
02:26 51.7 °F 48.9 °F 30.29 in East 3.0 mph 7.0 mph 90 % 0.00 in
02:31 51.7 °F 48.9 °F 30.28 in ESE 2.9 mph 5.8 mph 90 % 0.00 in
02:36 51.7 °F 48.9 °F 30.28 in East 2.0 mph 7.0 mph 90 % 0.00 in
02:41 51.7 °F 48.9 °F 30.29 in East 1.0 mph 4.0 mph 90 % 0.00 in
02:46 51.7 °F 48.9 °F 30.29 in East 1.0 mph 3.0 mph 90 % 0.00 in
02:51 51.7 °F 48.9 °F 30.29 in ESE 1.0 mph 6.0 mph 90 % 0.00 in
02:56 51.7 °F 48.9 °F 30.29 in ESE 1.0 mph 4.0 mph 90 % 0.00 in
03:01 51.6 °F 48.8 °F 30.30 in ESE 2.9 mph 4.6 mph 90 % 0.00 in
03:06 51.6 °F 48.8 °F 30.30 in SE 1.0 mph 3.5 mph 90 % 0.00 in
03:11 51.6 °F 48.8 °F 30.30 in Calm   1.0 mph 90 % 0.00 in
03:16 51.5 °F 48.7 °F 30.30 in SE 0.1 mph 1.2 mph 90 % 0.00 in
03:21 51.4 °F 48.6 °F 30.30 in Calm   1.0 mph 90 % 0.00 in
03:26 51.3 °F 48.5 °F 30.30 in ESE 1.0 mph 3.0 mph 90 % 0.00 in
03:31 51.3 °F 48.5 °F 30.29 in East 1.0 mph 2.0 mph 90 % 0.00 in
03:36 51.2 °F 48.4 °F 30.29 in East 1.0 mph 2.0 mph 90 % 0.00 in
03:41 51.2 °F 48.4 °F 30.30 in Calm   2.0 mph 90 % 0.00 in
03:46 51.2 °F 48.4 °F 30.30 in Calm   2.0 mph 90 % 0.00 in
03:51 51.2 °F 48.4 °F 30.30 in ESE 1.0 mph 2.0 mph 90 % 0.00 in
03:56 51.2 °F 48.4 °F 30.30 in Calm   1.0 mph 90 % 0.00 in
04:01 51.3 °F 48.5 °F 30.30 in ESE 0.4 mph 1.2 mph 90 % 0.00 in
04:06 51.3 °F 48.5 °F 30.30 in ESE 0.6 mph 2.3 mph 90 % 0.00 in
04:11 51.4 °F 48.6 °F 30.30 in East 1.7 mph 3.5 mph 90 % 0.00 in
04:16 51.5 °F 48.7 °F 30.29 in ENE 1.3 mph 2.3 mph 90 % 0.00 in
04:21 51.6 °F 49.1 °F 30.29 in ENE 2.0 mph 3.5 mph 91 % 0.00 in
04:26 51.7 °F 49.2 °F 30.29 in ENE 2.3 mph 4.6 mph 91 % 0.00 in
04:31 51.8 °F 49.0 °F 30.29 in ESE 2.8 mph 4.6 mph 90 % 0.00 in
04:36 52.0 °F 49.2 °F 30.29 in ENE 1.7 mph 3.5 mph 90 % 0.00 in
04:41 52.0 °F 49.2 °F 30.29 in East 1.8 mph 3.5 mph 90 % 0.00 in
04:46 52.1 °F 49.3 °F 30.29 in East 1.5 mph 2.3 mph 90 % 0.00 in
04:51 52.2 °F 49.4 °F 30.29 in East 1.3 mph 2.3 mph 90 % 0.00 in
04:56 52.3 °F 49.5 °F 30.30 in East 1.3 mph 3.0 mph 90 % 0.00 in
05:01 52.4 °F 49.6 °F 30.30 in ESE 0.4 mph 2.3 mph 90 % 0.00 in
05:06 52.4 °F 49.6 °F 30.30 in Calm   2.3 mph 90 % 0.00 in
05:11 52.5 °F 49.7 °F 30.30 in SSE 0.9 mph 3.0 mph 90 % 0.00 in
05:13 52.5 °F 49.7 °F 30.30 in ESE 0.4 mph 1.2 mph 90 % 0.00 in
05:18 52.6 °F 49.8 °F 30.31 in ESE 1.5 mph 3.5 mph 90 % 0.00 in
05:23 52.7 °F 49.5 °F 30.31 in Calm   1.2 mph 89 % 0.00 in
05:28 52.8 °F 49.6 °F 30.31 in ENE 0.9 mph 2.3 mph 89 % 0.00 in
05:33 52.8 °F 49.9 °F 30.31 in East 0.3 mph 2.3 mph 90 % 0.00 in
05:38 52.9 °F 50.0 °F 30.31 in East 0.6 mph 2.0 mph 90 % 0.00 in
05:43 52.9 °F 49.7 °F 30.31 in ESE 0.9 mph 2.3 mph 89 % 0.00 in
05:48 53.0 °F 49.8 °F 30.31 in Calm     89 % 0.00 in
05:58 53.0 °F 49.8 °F 30.31 in ESE 0.2 mph 2.3 mph 89 % 0.00 in
06:03 53.0 °F 49.8 °F 30.31 in ESE 0.5 mph 2.3 mph 89 % 0.00 in
06:08 53.1 °F 49.9 °F 30.31 in ESE 0.2 mph 2.3 mph 89 % 0.00 in
06:13 53.1 °F 49.9 °F 30.31 in ESE 0.4 mph 2.0 mph 89 % 0.00 in
06:18 53.1 °F 49.9 °F 30.31 in ESE 1.2 mph 2.3 mph 89 % 0.00 in
06:23 53.1 °F 49.9 °F 30.31 in ESE 1.0 mph 2.0 mph 89 % 0.00 in
06:28 53.2 °F 50.0 °F 30.31 in ESE 0.5 mph 2.3 mph 89 % 0.00 in
06:33 53.2 °F 50.0 °F 30.30 in ESE 1.5 mph 3.5 mph 89 % 0.00 in
06:38 53.2 °F 50.0 °F 30.30 in ESE 0.9 mph 2.3 mph 89 % 0.00 in
06:48 53.3 °F 50.1 °F 30.30 in ESE 0.8 mph 2.3 mph 89 % 0.00 in
06:53 53.3 °F 50.1 °F 30.30 in ESE 0.7 mph 2.3 mph 89 % 0.00 in
06:58 53.4 °F 50.2 °F 30.30 in ESE 1.0 mph 2.3 mph 89 % 0.00 in
07:03 53.4 °F 50.2 °F 30.30 in ESE 1.2 mph 2.3 mph 89 % 0.00 in
07:08 53.5 °F 50.3 °F 30.30 in ESE 1.3 mph 2.3 mph 89 % 0.00 in
07:13 53.6 °F 50.4 °F 30.29 in ESE 0.8 mph 1.2 mph 89 % 0.00 in
07:18 53.6 °F 50.4 °F 30.29 in ESE 0.5 mph 1.2 mph 89 % 0.00 in
07:23 53.7 °F 50.2 °F 30.30 in ESE 1.5 mph 3.5 mph 88 % 0.00 in
07:28 53.9 °F 50.4 °F 30.29 in East 0.2 mph 1.2 mph 88 % 0.00 in
07:33 54.0 °F 50.5 °F 30.29 in East 0.5 mph 2.3 mph 88 % 0.00 in
07:39 54.0 °F 50.5 °F 30.29 in East 0.5 mph 2.3 mph 88 % 0.00 in
07:44 54.2 °F 50.7 °F 30.29 in East 1.5 mph 3.5 mph 88 % 0.00 in
07:49 54.2 °F 50.7 °F 30.30 in ESE 1.0 mph 3.5 mph 88 % 0.00 in
07:54 54.4 °F 50.9 °F 30.29 in ESE 0.6 mph 2.3 mph 88 % 0.00 in
07:59 54.5 °F 51.0 °F 30.29 in Calm     88 % 0.00 in
08:04 54.6 °F 51.1 °F 30.29 in East 0.1 mph 1.2 mph 88 % 0.00 in
08:09 54.7 °F 51.2 °F 30.29 in East 1.1 mph 2.3 mph 88 % 0.00 in
08:14 54.8 °F 51.3 °F 30.29 in East 0.7 mph 2.3 mph 88 % 0.00 in
08:19 54.9 °F 51.4 °F 30.29 in East 1.4 mph 3.0 mph 88 % 0.00 in
08:24 54.9 °F 51.4 °F 30.29 in East 0.6 mph 2.3 mph 88 % 0.00 in
08:29 55.0 °F 51.5 °F 30.29 in East 0.5 mph 2.3 mph 88 % 0.00 in
08:34 55.0 °F 51.5 °F 30.29 in East 0.8 mph 2.0 mph 88 % 0.00 in
08:39 55.1 °F 51.6 °F 30.29 in SE 1.1 mph 3.5 mph 88 % 0.00 in
08:44 55.1 °F 51.6 °F 30.29 in East 1.2 mph 3.5 mph 88 % 0.00 in
08:49 55.1 °F 51.6 °F 30.29 in East 0.5 mph 2.3 mph 88 % 0.00 in
08:54 55.2 °F 51.7 °F 30.29 in ESE 0.6 mph 3.0 mph 88 % 0.00 in
08:59 55.2 °F 51.7 °F 30.28 in ESE 0.2 mph 1.2 mph 88 % 0.00 in
09:04 55.3 °F 51.8 °F 30.29 in East 1.3 mph 2.3 mph 88 % 0.00 in
09:09 55.3 °F 51.8 °F 30.28 in East 0.5 mph 2.3 mph 88 % 0.00 in
09:14 55.3 °F 52.1 °F 30.28 in SE 0.5 mph 1.2 mph 89 % 0.00 in
09:19 55.4 °F 52.2 °F 30.28 in SE 0.4 mph 1.2 mph 89 % 0.00 in
09:24 55.4 °F 52.2 °F 30.28 in ESE 0.8 mph 3.5 mph 89 % 0.00 in
09:29 55.5 °F 52.3 °F 30.28 in Calm   2.3 mph 89 % 0.00 in
09:34 55.5 °F 52.3 °F 30.27 in East 1.1 mph 2.3 mph 89 % 0.00 in
09:39 55.5 °F 52.3 °F 30.27 in East 0.6 mph 2.3 mph 89 % 0.00 in
09:44 55.6 °F 52.7 °F 30.27 in Calm   1.2 mph 90 % 0.00 in
09:50 55.7 °F 52.8 °F 30.28 in ENE 0.5 mph 3.5 mph 90 % 0.00 in
09:55 55.8 °F 52.6 °F 30.28 in ESE 1.4 mph 2.3 mph 89 % 0.00 in
10:00 55.9 °F 53.0 °F 30.27 in SE 0.3 mph 1.2 mph 90 % 0.00 in
10:05 56.1 °F 53.2 °F 30.27 in East 0.7 mph 2.3 mph 90 % 0.00 in
10:10 56.4 °F 53.8 °F 30.27 in SE 0.5 mph 3.0 mph 91 % 0.00 in
10:15 56.5 °F 53.6 °F 30.27 in Calm   1.2 mph 90 % 0.00 in
10:20 56.7 °F 53.8 °F 30.27 in East 0.5 mph 3.5 mph 90 % 0.00 in
10:25 56.8 °F 53.9 °F 30.27 in East 0.3 mph 1.2 mph 90 % 0.00 in
10:30 56.8 °F 53.9 °F 30.26 in East 0.2 mph 1.2 mph 90 % 0.00 in
10:35 56.9 °F 54.0 °F 30.26 in SE 0.3 mph 2.3 mph 90 % 0.00 in
10:45 56.9 °F 54.0 °F 30.26 in SE 0.1 mph 1.0 mph 90 % 0.00 in
10:50 57.0 °F 54.1 °F 30.26 in ESE 0.5 mph 3.0 mph 90 % 0.00 in
10:55 57.0 °F 54.4 °F 30.26 in Calm   1.2 mph 91 % 0.00 in
11:00 57.0 °F 54.1 °F 30.25 in Calm     90 % 0.00 in
11:05 57.1 °F 54.5 °F 30.25 in ENE 0.2 mph 1.2 mph 91 % 0.00 in
11:10 57.1 °F 54.5 °F 30.25 in SSE 1.0 mph 2.3 mph 91 % 0.00 in
11:15 57.2 °F 54.6 °F 30.24 in Calm     91 % 0.00 in
11:20 57.2 °F 54.6 °F 30.24 in Calm     91 % 0.00 in
11:25 57.2 °F 54.6 °F 30.23 in Calm     91 % 0.00 in
11:30 57.3 °F 54.7 °F 30.23 in Calm     91 % 0.00 in
11:35 57.5 °F 55.2 °F 30.23 in SE 0.3 mph 1.2 mph 92 % 0.00 in
11:40 57.6 °F 55.3 °F 30.23 in SE 0.1 mph   92 % 0.00 in
11:45 57.7 °F 55.4 °F 30.22 in Calm     92 % 0.00 in
11:50 57.8 °F 55.5 °F 30.22 in SE 0.2 mph 1.2 mph 92 % 0.00 in
11:55 58.0 °F 55.7 °F 30.22 in SE 0.1 mph 1.2 mph 92 % 0.00 in
12:01 58.1 °F 55.8 °F 30.21 in SE 0.2 mph 2.3 mph 92 % 0.00 in
12:06 58.2 °F 55.9 °F 30.21 in SE 0.1 mph 1.2 mph 92 % 0.00 in
12:11 58.3 °F 56.3 °F 30.21 in SE 1.2 mph 4.6 mph 93 % 0.00 in
12:16 58.4 °F 56.4 °F 30.21 in SE 0.4 mph 1.2 mph 93 % 0.00 in
12:21 58.4 °F 56.4 °F 30.21 in SE 0.1 mph 1.2 mph 93 % 0.00 in
12:26 58.5 °F 56.5 °F 30.21 in SE 0.4 mph 2.3 mph 93 % 0.00 in
12:31 58.5 °F 56.5 °F 30.21 in SE 0.2 mph 1.2 mph 93 % 0.00 in
12:36 58.6 °F 56.6 °F 30.20 in SE 0.4 mph 2.3 mph 93 % 0.00 in
12:41 58.7 °F 56.7 °F 30.20 in SE 0.2 mph 1.2 mph 93 % 0.00 in
12:46 58.7 °F 56.7 °F 30.20 in SSE 0.2 mph 1.2 mph 93 % 0.00 in
12:51 58.7 °F 56.7 °F 30.19 in Calm   1.0 mph 93 % 0.00 in
12:56 58.8 °F 56.8 °F 30.19 in Calm   1.2 mph 93 % 0.00 in
13:01 58.8 °F 56.8 °F 30.19 in Calm   1.2 mph 93 % 0.00 in
13:06 58.9 °F 56.9 °F 30.19 in SSE 0.1 mph 1.2 mph 93 % 0.00 in
13:11 58.9 °F 56.9 °F 30.19 in Calm     93 % 0.00 in
13:16 58.9 °F 56.9 °F 30.19 in Calm     93 % 0.00 in
13:21 58.9 °F 56.9 °F 30.19 in Calm     93 % 0.00 in
13:26 58.9 °F 56.9 °F 30.18 in Calm     93 % 0.00 in
13:31 59.0 °F 57.3 °F 30.18 in Calm     94 % 0.00 in
13:36 59.0 °F 57.3 °F 30.18 in Calm   1.2 mph 94 % 0.00 in
13:41 59.0 °F 57.3 °F 30.18 in Calm     94 % 0.00 in
13:46 59.1 °F 57.4 °F 30.17 in Calm   1.2 mph 94 % 0.00 in
13:51 59.3 °F 57.6 °F 30.16 in Calm     94 % 0.00 in
13:56 59.3 °F 57.6 °F 30.16 in SSE 0.9 mph 1.2 mph 94 % 0.00 in
14:05 59.3 °F 57.9 °F 30.16 in Calm     95 % 0.00 in
14:10 59.4 °F 58.0 °F 30.16 in Calm     95 % 0.00 in
14:15 59.6 °F 58.2 °F 30.16 in Calm     95 % 0.00 in
14:20 59.6 °F 58.2 °F 30.16 in Calm     95 % 0.00 in
14:25 59.6 °F 58.2 °F 30.16 in ESE 0.6 mph 1.2 mph 95 % 0.00 in
14:30 59.6 °F 58.2 °F 30.16 in ENE 1.0 mph 2.3 mph 95 % 0.00 in
14:35 59.5 °F 58.1 °F 30.05 in ENE 1.7 mph 3.5 mph 95 % 0.00 in
14:40 59.5 °F 58.1 °F 30.03 in ENE 1.3 mph 3.0 mph 95 % 0.00 in
14:46 59.4 °F 58.0 °F 30.16 in ENE 0.6 mph 1.2 mph 95 % 0.00 in
14:51 59.4 °F 58.0 °F 30.02 in Calm   3.0 mph 95 % 0.00 in
14:56 59.4 °F 58.0 °F 29.98 in Calm     95 % 0.00 in
15:01 59.4 °F 58.0 °F 29.98 in ENE 0.1 mph   95 % 0.00 in
15:06 59.4 °F 58.0 °F 29.97 in ENE 0.1 mph 1.0 mph 95 % 0.00 in
15:11 59.4 °F 58.0 °F 30.17 in Calm   2.0 mph 95 % 0.00 in
15:16 59.4 °F 58.0 °F 30.15 in Calm   1.0 mph 95 % 0.00 in
15:21 59.4 °F 58.0 °F 30.15 in Calm     95 % 0.00 in
15:26 59.4 °F 58.0 °F 29.95 in Calm     95 % 0.01 in
15:31 59.4 °F 58.0 °F 29.94 in Calm     95 % 0.01 in
15:36 59.4 °F 58.0 °F 29.94 in Calm     95 % 0.01 in
15:41 59.5 °F 58.4 °F 29.93 in Calm     96 % 0.01 in
15:46 59.5 °F 58.4 °F 29.97 in Calm   1.2 mph 96 % 0.01 in
15:51 59.5 °F 58.4 °F 30.14 in Calm     96 % 0.01 in
15:56 59.6 °F 58.5 °F 30.14 in Calm     96 % 0.01 in
16:01 59.5 °F 58.4 °F 30.14 in Calm     96 % 0.01 in
16:06 59.5 °F 58.4 °F 29.97 in Calm     96 % 0.01 in
16:11 59.5 °F 58.4 °F 30.14 in ENE 0.1 mph 2.0 mph 96 % 0.01 in
16:14 59.5 °F 58.4 °F 30.14 in SE 0.3 mph 3.5 mph 96 % 0.00 in
16:18 59.5 °F 58.4 °F 30.14 in SE 2.3 mph 5.8 mph 96 % 0.00 in
16:23 59.6 °F 58.5 °F 30.14 in SSE 2.0 mph 4.6 mph 96 % 0.00 in
16:28 59.8 °F 58.7 °F 30.13 in SSE 2.3 mph 9.2 mph 96 % 0.00 in
16:33 59.8 °F 58.7 °F 30.01 in SE 1.2 mph 8.1 mph 96 % 0.00 in
16:38 59.9 °F 58.8 °F 30.13 in Calm     96 % 0.00 in
16:43 59.9 °F 59.0 °F 30.03 in East 0.4 mph 2.3 mph 97 % 0.00 in
16:48 60.0 °F 59.1 °F 30.04 in SE 0.3 mph 2.3 mph 97 % 0.00 in
16:53 60.0 °F 59.1 °F 30.03 in SE 3.0 mph 6.0 mph 97 % 0.00 in
16:58 60.0 °F 59.1 °F 30.14 in SSE 2.6 mph 5.8 mph 97 % 0.00 in
17:03 60.0 °F 59.1 °F 30.13 in SE 0.7 mph 3.5 mph 97 % 0.00 in
17:08 60.0 °F 59.1 °F 30.05 in Calm   1.2 mph 97 % 0.00 in
17:13 60.0 °F 59.1 °F 30.12 in SE 0.7 mph 1.2 mph 97 % 0.00 in
17:18 60.0 °F 59.1 °F 30.12 in SE 1.6 mph 3.5 mph 97 % 0.00 in
17:23 60.0 °F 59.1 °F 30.13 in SE 0.2 mph 3.0 mph 97 % 0.00 in
17:28 60.0 °F 59.1 °F 29.99 in SE 0.1 mph 2.3 mph 97 % 0.00 in
17:38 60.0 °F 59.1 °F 30.12 in SE 0.9 mph 3.5 mph 97 % 0.00 in
17:43 59.9 °F 59.0 °F 30.11 in SE 2.4 mph 3.5 mph 97 % 0.00 in
17:48 59.9 °F 58.8 °F 30.11 in SSE 2.1 mph 4.6 mph 96 % 0.00 in
17:53 59.8 °F 58.7 °F 30.10 in Calm   1.2 mph 96 % 0.00 in
17:59 59.8 °F 58.7 °F 30.10 in Calm   1.0 mph 96 % 0.00 in
18:04 59.8 °F 58.7 °F 30.10 in Calm     96 % 0.00 in
18:09 59.7 °F 58.6 °F 30.10 in Calm     96 % 0.00 in
18:14 59.7 °F 58.6 °F 30.09 in Calm   2.3 mph 96 % 0.00 in
18:19 59.7 °F 58.6 °F 30.10 in SSE 0.1 mph 2.3 mph 96 % 0.00 in
18:24 59.6 °F 58.5 °F 30.09 in Calm   1.2 mph 96 % 0.00 in
18:29 59.6 °F 58.7 °F 30.09 in SSE 0.3 mph 1.2 mph 97 % 0.00 in
18:34 59.7 °F 58.8 °F 30.09 in SE 1.8 mph 3.5 mph 97 % 0.00 in
18:39 59.7 °F 58.8 °F 30.09 in SSE 0.4 mph 2.3 mph 97 % 0.01 in
18:44 59.7 °F 58.8 °F 30.09 in SE 0.6 mph 2.3 mph 97 % 0.01 in
18:46 59.6 °F 58.7 °F 30.08 in SE 2.3 mph 3.5 mph 97 % 0.01 in
18:51 59.6 °F 58.7 °F 30.08 in SE 1.1 mph 2.3 mph 97 % 0.01 in
18:56 59.6 °F 58.7 °F 30.07 in SE 2.0 mph 5.0 mph 97 % 0.01 in
19:01 59.6 °F 58.7 °F 30.07 in SE 0.8 mph 2.3 mph 97 % 0.01 in
19:06 59.6 °F 58.7 °F 30.06 in SE 0.6 mph 3.5 mph 97 % 0.01 in
19:12 59.6 °F 58.7 °F 30.06 in SE 1.2 mph   97 % 0.01 in
19:17 59.6 °F 58.7 °F 30.08 in SE 0.7 mph 2.3 mph 97 % 0.01 in
19:22 59.6 °F 58.7 °F 30.06 in Calm   1.2 mph 97 % 0.01 in
19:27 59.6 °F 58.7 °F 30.06 in Calm     97 % 0.01 in
19:32 59.6 °F 58.7 °F 30.07 in Calm     97 % 0.01 in
19:37 59.6 °F 58.7 °F 30.06 in SE 0.1 mph 1.2 mph 97 % 0.01 in
19:42 59.7 °F 58.8 °F 30.07 in Calm     97 % 0.00 in
19:47 59.8 °F 58.9 °F 30.07 in SE 0.3 mph 2.3 mph 97 % 0.00 in
19:52 59.9 °F 59.0 °F 30.07 in Calm     97 % 0.00 in
19:57 59.9 °F 59.0 °F 30.05 in Calm     97 % 0.00 in
20:02 59.9 °F 59.0 °F 30.06 in Calm     97 % 0.00 in
20:07 60.0 °F 59.1 °F 30.07 in Calm     97 % 0.00 in
20:12 60.0 °F 59.1 °F 30.06 in Calm     97 % 0.00 in
20:17 60.0 °F 59.1 °F 30.06 in Calm     97 % 0.00 in
20:22 60.0 °F 59.1 °F 30.06 in Calm     97 % 0.00 in
20:27 60.0 °F 59.1 °F 30.06 in Calm     97 % 0.00 in
20:32 60.0 °F 59.1 °F 30.06 in Calm     97 % 0.00 in
20:37 60.0 °F 59.1 °F 30.06 in Calm     97 % 0.00 in
20:42 60.1 °F 59.2 °F 30.06 in Calm     97 % 0.00 in
20:47 60.1 °F 59.2 °F 30.05 in Calm     97 % 0.00 in
20:52 60.1 °F 59.2 °F 30.06 in Calm     97 % 0.00 in
20:57 60.2 °F 59.3 °F 30.07 in Calm     97 % 0.00 in
21:02 60.2 °F 59.3 °F 30.08 in Calm     97 % 0.00 in
21:07 60.2 °F 59.3 °F 30.06 in Calm     97 % 0.00 in
21:12 60.2 °F 59.3 °F 30.05 in Calm     97 % 0.00 in
21:17 60.2 °F 59.3 °F 30.06 in Calm     97 % 0.00 in
21:22 60.2 °F 59.3 °F 30.06 in Calm     97 % 0.00 in
21:27 60.3 °F 59.4 °F 30.06 in Calm     97 % 0.00 in
21:32 60.3 °F 59.4 °F 30.05 in Calm     97 % 0.00 in
21:37 60.3 °F 59.4 °F 30.05 in Calm     97 % 0.00 in
21:42 60.3 °F 59.4 °F 30.04 in Calm     97 % 0.00 in
21:47 60.3 °F 59.4 °F 30.05 in Calm     97 % 0.01 in
21:53 60.2 °F 59.3 °F 30.04 in Calm     97 % 0.01 in
21:58 60.2 °F 59.3 °F 30.04 in Calm     97 % 0.01 in
22:03 60.2 °F 59.3 °F 30.04 in Calm     97 % 0.01 in
22:08 60.2 °F 59.3 °F 30.05 in Calm     97 % 0.01 in
22:13 60.2 °F 59.3 °F 30.04 in Calm     97 % 0.01 in
22:19 60.2 °F 59.3 °F 30.04 in Calm     97 % 0.01 in
22:22 60.1 °F 59.2 °F 30.04 in Calm     97 % 0.01 in
22:23 60.1 °F 59.2 °F 30.05 in Calm     97 % 0.01 in
22:24 60.1 °F 59.2 °F 29.81 in Calm     97 % 0.01 in
22:28 60.1 °F 59.2 °F 29.79 in Calm     97 % 0.01 in
22:34 60.0 °F 59.1 °F 30.04 in Calm     97 % 0.01 in
22:39 60.0 °F 59.1 °F 30.05 in Calm     97 % 0.01 in
22:44 60.0 °F 59.1 °F 30.03 in Calm     97 % 0.01 in
22:49 59.9 °F 59.0 °F 30.03 in Calm     97 % 0.00 in
22:54 59.8 °F 58.9 °F 30.02 in Calm   1.2 mph 97 % 0.00 in
22:59 59.8 °F 58.9 °F 30.02 in SE 0.1 mph 1.2 mph 97 % 0.00 in
23:04 59.8 °F 58.9 °F 30.04 in SE 0.6 mph 2.3 mph 97 % 0.00 in
23:09 59.8 °F 58.9 °F 30.02 in SSW 0.2 mph 1.2 mph 97 % 0.00 in
23:14 59.9 °F 59.0 °F 30.03 in WSW 1.5 mph 4.6 mph 97 % 0.00 in
23:19 60.0 °F 59.1 °F 30.02 in Calm   1.2 mph 97 % 0.00 in
23:24 60.1 °F 59.2 °F 30.02 in Calm   1.2 mph 97 % 0.00 in
23:29 60.2 °F 59.3 °F 30.02 in Calm     97 % 0.00 in
23:34 60.2 °F 59.3 °F 30.03 in WSW 0.1 mph 2.3 mph 97 % 0.00 in
23:39 60.3 °F 59.4 °F 30.02 in Calm     97 % 0.00 in
23:44 60.3 °F 59.4 °F 30.01 in Calm     97 % 0.00 in
23:50 60.4 °F 59.5 °F 30.02 in SW 0.2 mph 1.2 mph 97 % 0.00 in
23:55 60.4 °F 59.5 °F 30.01 in Calm   1.2 mph 97 % 0.00 in
23:57 60.4 °F 59.5 °F 30.01 in SW 0.8 mph 2.3 mph 97 % 0.00 in
Crab Meadow Weather
Compliments of Weather Underground - 3 mb

Script developed by  Jim McMurry - jmcmurry@mwt.net Adapted for the template by  Wim van der Kuil - Leuven-Template.eu

Weather Terms: Severe Thunderstorm Warning - A severe thunderstorm is indicated by Doppler radar or sighted by skywarn spotters. A severe thunderstorm contains large damaging hail, 1 inch diameter or larger, and/or damaging winds of around 60 mph or greater. These warnings are issued on a county by county basis by the local Weather Forecast Office in Upton.